createdAt,value
2023-03-07T00:01:58.111Z,34.58
2023-03-07T00:04:25.308Z,30.27
2023-03-07T00:06:52.583Z,37.78
2023-03-07T00:09:19.790Z,33.35
2023-03-07T00:11:47.048Z,29.83
2023-03-07T00:14:14.280Z,33.30
2023-03-07T00:16:41.580Z,29.27
2023-03-07T00:19:08.784Z,32.38
2023-03-07T00:21:36.111Z,33.90
2023-03-07T00:24:04.788Z,29.27
2023-03-07T00:26:32.566Z,32.25
2023-03-07T00:28:59.824Z,32.90
2023-03-07T00:31:27.166Z,34.38
2023-03-07T00:33:54.493Z,33.92
2023-03-07T00:36:23.158Z,33.15
2023-03-07T00:38:50.756Z,29.50
2023-03-07T00:41:19.409Z,32.83
2023-03-07T00:43:47.285Z,36.28
2023-03-07T00:46:15.485Z,29.98
2023-03-07T00:48:42.814Z,35.38
2023-03-07T00:51:11.534Z,29.33
2023-03-07T00:53:39.787Z,26.30
2023-03-07T00:56:21.329Z,28.80
2023-03-07T00:58:48.817Z,24.92
2023-03-07T01:01:17.898Z,29.02
2023-03-07T01:03:45.503Z,24.27
2023-03-07T01:06:14.815Z,23.15
2023-03-07T01:08:42.149Z,22.63
2023-03-07T01:11:09.531Z,22.45
2023-03-07T01:13:36.893Z,25.77
2023-03-07T01:16:16.049Z,22.45
2023-03-07T01:18:43.879Z,19.90
2023-03-07T01:21:15.682Z,21.33
2023-03-07T01:23:43.434Z,21.30
2023-03-07T01:26:17.988Z,23.13
2023-03-07T01:28:45.645Z,20.63
2023-03-07T01:31:12.907Z,25.85
2023-03-07T01:33:40.205Z,24.92
2023-03-07T01:36:15.263Z,20.63
2023-03-07T01:38:42.559Z,25.33
2023-03-07T01:41:10.025Z,21.15
2023-03-07T01:43:37.787Z,19.45
2023-03-07T01:46:20.253Z,19.60
2023-03-07T01:49:07.534Z,18.27
2023-03-07T01:51:35.572Z,19.23
2023-03-07T01:54:03.144Z,17.55
2023-03-07T01:56:31.527Z,19.45
2023-03-07T01:58:59.228Z,21.25
2023-03-07T02:01:26.963Z,20.08
2023-03-07T02:04:03.793Z,18.73
2023-03-07T02:06:32.441Z,19.60
2023-03-07T02:09:00.768Z,20.95
2023-03-07T02:11:28.022Z,24.20
2023-03-07T02:13:55.310Z,19.92
2023-03-07T02:16:22.706Z,18.27
2023-03-07T02:18:50.975Z,20.45
2023-03-07T02:21:18.156Z,20.98
2023-03-07T02:23:51.439Z,20.05
2023-03-07T02:26:23.645Z,19.05
2023-03-07T02:28:51.214Z,19.75
2023-03-07T02:31:18.860Z,19.23
2023-03-07T02:33:46.191Z,23.02
2023-03-07T02:36:15.061Z,20.90
2023-03-07T02:38:43.737Z,23.33
2023-03-07T02:41:14.204Z,21.05
2023-03-07T02:43:41.412Z,21.73
2023-03-07T02:46:08.916Z,24.02
2023-03-07T02:48:36.185Z,21.33
2023-03-07T02:51:03.417Z,23.15
2023-03-07T02:53:30.654Z,21.65
2023-03-07T02:55:57.913Z,24.05
2023-03-07T02:58:25.163Z,21.98
2023-03-07T03:00:52.415Z,21.60
2023-03-07T03:03:19.772Z,21.02
2023-03-07T03:05:46.989Z,19.98
2023-03-07T03:08:14.248Z,23.13
2023-03-07T03:10:41.548Z,22.17
2023-03-07T03:13:08.842Z,19.40
2023-03-07T03:15:36.083Z,22.42
2023-03-07T03:18:03.334Z,22.65
2023-03-07T03:20:30.623Z,22.45
2023-03-07T03:22:57.904Z,23.58
2023-03-07T03:25:27.177Z,23.63
2023-03-07T03:27:54.428Z,23.15
2023-03-07T03:30:21.656Z,21.92
2023-03-07T03:32:48.998Z,20.48
2023-03-07T03:35:16.307Z,19.42
2023-03-07T03:37:43.590Z,19.88
2023-03-07T03:40:14.525Z,22.58
2023-03-07T03:42:42.946Z,22.58
2023-03-07T03:45:10.956Z,22.05
2023-03-07T03:47:38.585Z,21.95
2023-03-07T03:50:06.033Z,24.98
2023-03-07T03:52:33.404Z,21.73
2023-03-07T03:55:00.596Z,22.67
2023-03-07T03:57:28.022Z,23.13
2023-03-07T03:59:55.633Z,24.48
2023-03-07T04:02:23.338Z,25.42
2023-03-07T04:04:50.655Z,23.00
2023-03-07T04:07:17.913Z,22.90
2023-03-07T04:09:45.159Z,19.00
2023-03-07T04:12:12.448Z,21.52
2023-03-07T04:14:39.735Z,19.52
2023-03-07T04:17:07.382Z,21.10
2023-03-07T04:19:34.605Z,21.13
2023-03-07T04:22:01.842Z,21.40
2023-03-07T04:24:29.342Z,20.73
2023-03-07T04:26:56.579Z,21.83
2023-03-07T04:29:23.789Z,17.50
2023-03-07T04:31:51.111Z,18.38
2023-03-07T04:34:18.407Z,17.73
2023-03-07T04:36:45.659Z,21.23
2023-03-07T04:39:12.895Z,18.25
2023-03-07T04:41:40.216Z,19.20
2023-03-07T04:44:07.453Z,18.50
2023-03-07T04:46:34.779Z,17.08
2023-03-07T04:49:02.000Z,16.35
2023-03-07T04:51:29.867Z,15.32
2023-03-07T04:53:57.180Z,16.45
2023-03-07T04:56:24.436Z,17.15
2023-03-07T04:58:51.709Z,15.85
2023-03-07T05:01:19.391Z,15.55
2023-03-07T05:03:46.710Z,16.73
2023-03-07T05:06:15.558Z,16.77
2023-03-07T05:08:42.896Z,17.83
2023-03-07T05:11:10.330Z,16.92
2023-03-07T05:13:37.731Z,14.77
2023-03-07T05:16:05.161Z,15.52
2023-03-07T05:18:32.428Z,16.17
2023-03-07T05:20:59.791Z,13.82
2023-03-07T05:23:27.056Z,16.80
2023-03-07T05:25:54.293Z,19.90
2023-03-07T05:28:21.505Z,15.80
2023-03-07T05:30:49.630Z,19.67
2023-03-07T05:33:16.960Z,15.63
2023-03-07T05:35:44.249Z,13.25
2023-03-07T05:38:11.829Z,11.52
2023-03-07T05:40:40.247Z,11.95
2023-03-07T05:43:07.513Z,12.95
2023-03-07T05:45:34.904Z,11.65
2023-03-07T05:48:02.450Z,12.18
2023-03-07T05:50:30.757Z,10.95
2023-03-07T05:52:57.994Z,10.98
2023-03-07T05:55:25.230Z,10.20
2023-03-07T05:57:52.532Z,9.85
2023-03-07T06:00:20.121Z,10.88
2023-03-07T06:02:47.509Z,10.73
2023-03-07T06:05:14.835Z,10.18
2023-03-07T06:07:42.104Z,10.05
2023-03-07T06:10:09.782Z,9.30
2023-03-07T06:12:37.082Z,11.00
2023-03-07T06:15:05.123Z,10.45
2023-03-07T06:17:32.353Z,10.18
2023-03-07T06:19:59.549Z,11.70
2023-03-07T06:22:26.830Z,12.65
2023-03-07T06:24:55.162Z,10.73
2023-03-07T06:27:22.430Z,12.70
2023-03-07T06:29:49.655Z,9.77
2023-03-07T06:32:17.001Z,10.60
2023-03-07T06:34:44.272Z,11.40
2023-03-07T06:37:11.542Z,10.02
2023-03-07T06:39:38.820Z,11.18
2023-03-07T06:42:06.237Z,14.25
2023-03-07T06:44:33.522Z,11.27
2023-03-07T06:47:00.822Z,10.85
2023-03-07T06:49:28.178Z,10.07
2023-03-07T06:51:55.453Z,10.35
2023-03-07T06:54:22.712Z,10.52
2023-03-07T06:56:51.685Z,11.73
2023-03-07T06:59:19.816Z,9.13
2023-03-07T07:01:48.822Z,9.23
2023-03-07T07:04:16.259Z,9.55
2023-03-07T07:06:43.509Z,8.38
2023-03-07T07:09:12.930Z,9.55
2023-03-07T07:11:40.274Z,8.48
2023-03-07T07:14:07.522Z,12.00
2023-03-07T07:16:36.536Z,17.48
2023-03-07T07:19:03.976Z,16.33
2023-03-07T07:21:31.282Z,9.35
2023-03-07T07:23:58.919Z,8.27
2023-03-07T07:26:26.625Z,8.85
2023-03-07T07:28:53.992Z,6.65
2023-03-07T07:31:21.288Z,9.15
2023-03-07T07:33:48.732Z,7.47
2023-03-07T07:36:16.049Z,8.55
2023-03-07T07:38:43.292Z,10.13
2023-03-07T07:41:10.525Z,8.32
2023-03-07T07:43:37.813Z,8.00
2023-03-07T07:46:05.680Z,12.18
2023-03-07T07:48:33.587Z,8.93
2023-03-07T07:51:01.934Z,9.60
2023-03-07T07:53:29.174Z,7.97
2023-03-07T07:55:56.402Z,12.73
2023-03-07T07:58:23.689Z,11.30
2023-03-07T08:00:50.959Z,7.18
2023-03-07T08:03:18.756Z,9.15
2023-03-07T08:05:48.261Z,7.55
2023-03-07T08:08:16.442Z,9.18
2023-03-07T08:10:44.579Z,10.90
2023-03-07T08:13:15.628Z,10.50
2023-03-07T08:15:43.059Z,10.07
2023-03-07T08:18:11.015Z,12.27
2023-03-07T08:20:38.672Z,9.45
2023-03-07T08:23:05.997Z,8.95
2023-03-07T08:25:33.249Z,9.40
2023-03-07T08:28:03.238Z,10.82
2023-03-07T08:30:31.194Z,9.88
2023-03-07T08:32:58.507Z,9.50
2023-03-07T08:35:27.090Z,9.93
2023-03-07T08:37:55.717Z,9.85
2023-03-07T08:40:24.420Z,12.82
2023-03-07T08:42:51.840Z,10.73
2023-03-07T08:45:19.536Z,10.95
2023-03-07T08:47:47.478Z,10.32
2023-03-07T08:50:14.713Z,12.45
2023-03-07T08:52:43.435Z,11.30
2023-03-07T08:55:10.973Z,11.20
2023-03-07T08:57:38.292Z,12.63
2023-03-07T09:00:08.814Z,10.30
2023-03-07T09:02:36.198Z,9.98
2023-03-07T09:05:03.526Z,14.30
2023-03-07T09:07:30.804Z,13.65
2023-03-07T09:09:58.058Z,11.88
2023-03-07T09:12:25.486Z,18.33
2023-03-07T09:14:55.957Z,12.02
2023-03-07T09:17:23.245Z,13.50
2023-03-07T09:19:50.760Z,12.00
2023-03-07T09:22:18.026Z,12.38
2023-03-07T09:24:45.310Z,25.40
2023-03-07T09:27:12.642Z,12.55
2023-03-07T09:29:39.932Z,12.73
2023-03-07T09:32:07.294Z,13.40
2023-03-07T09:34:34.519Z,12.68
2023-03-07T09:37:01.744Z,13.73
2023-03-07T09:39:29.018Z,18.15
2023-03-07T09:42:00.133Z,12.20
2023-03-07T09:44:33.345Z,16.50
2023-03-07T09:47:25.874Z,12.02
2023-03-07T09:49:56.266Z,12.85
2023-03-07T09:52:25.826Z,12.40
2023-03-07T09:54:57.141Z,13.93
2023-03-07T09:57:26.819Z,13.65
2023-03-07T09:59:56.257Z,13.75
2023-03-07T10:02:39.825Z,13.82
2023-03-07T10:05:12.971Z,13.07
2023-03-07T10:07:40.284Z,15.73
2023-03-07T10:10:11.772Z,15.73
2023-03-07T10:12:57.949Z,13.90
2023-03-07T10:15:31.028Z,14.75
2023-03-07T10:18:02.681Z,16.40
2023-03-07T10:20:49.036Z,14.57
2023-03-07T10:23:25.633Z,17.95
2023-03-07T10:26:09.365Z,15.45
2023-03-07T10:28:38.156Z,14.10
2023-03-07T10:31:15.617Z,16.23
2023-03-07T10:33:44.593Z,14.45
2023-03-07T10:36:22.475Z,18.00
2023-03-07T10:39:07.637Z,14.05
2023-03-07T10:41:34.920Z,14.02
2023-03-07T10:44:02.240Z,15.30
2023-03-07T10:46:31.019Z,17.77
2023-03-07T10:49:01.006Z,14.90
2023-03-07T10:51:41.848Z,13.88
2023-03-07T10:54:14.349Z,14.25
2023-03-07T10:56:41.617Z,14.57
2023-03-07T10:59:09.834Z,12.75
2023-03-07T11:01:38.511Z,13.80
2023-03-07T11:04:20.939Z,12.93
2023-03-07T11:06:57.256Z,12.93
2023-03-07T11:09:34.909Z,11.95
2023-03-07T11:12:11.200Z,13.65
2023-03-07T11:14:49.255Z,13.30
2023-03-07T11:17:23.693Z,12.65
2023-03-07T11:19:57.580Z,11.13
2023-03-07T11:22:29.684Z,13.00
2023-03-07T11:24:58.654Z,11.70
2023-03-07T11:27:31.348Z,12.50
2023-03-07T11:30:17.187Z,11.95
2023-03-07T11:32:58.663Z,11.60
2023-03-07T11:35:31.366Z,12.27
2023-03-07T11:38:01.578Z,11.93
2023-03-07T11:40:31.413Z,14.70
2023-03-07T11:43:06.716Z,13.80
2023-03-07T11:48:11.467Z,8.30
2023-03-07T11:50:39.546Z,5.03
2023-03-07T11:53:22.105Z,3.00
2023-03-07T11:55:55.445Z,3.92
2023-03-07T11:58:41.589Z,2.35
2023-03-07T12:01:27.791Z,1.30
2023-03-07T12:04:04.217Z,1.40
2023-03-07T12:06:37.234Z,1.33
2023-03-07T12:09:23.162Z,1.67
2023-03-07T12:11:50.393Z,1.30
2023-03-07T12:14:23.784Z,1.13
2023-03-07T12:17:00.587Z,1.20
2023-03-07T12:19:38.534Z,1.13
2023-03-07T12:22:28.123Z,1.23
2023-03-07T12:25:01.680Z,2.17
2023-03-07T12:27:38.199Z,1.30
2023-03-07T12:30:14.852Z,1.00
2023-03-07T12:32:42.281Z,2.80
2023-03-07T12:35:17.206Z,6.93
2023-03-07T12:37:50.002Z,3.60
2023-03-07T12:40:26.828Z,2.95
2023-03-07T12:42:54.118Z,3.88
2023-03-07T12:45:22.595Z,0.68
2023-03-07T12:47:59.034Z,1.95
2023-03-07T12:50:43.932Z,3.90
2023-03-07T12:53:11.213Z,0.98
2023-03-07T12:55:46.120Z,2.40
2023-03-07T12:58:22.468Z,1.85
2023-03-07T13:00:52.881Z,4.30
2023-03-07T13:03:40.449Z,3.75
2023-03-07T13:06:08.190Z,1.95
2023-03-07T13:08:36.388Z,2.55
2023-03-07T13:11:03.586Z,3.53
2023-03-07T13:13:45.823Z,1.75
2023-03-07T13:16:14.102Z,2.17
2023-03-07T13:18:41.413Z,1.55
2023-03-07T13:21:13.337Z,5.05
2023-03-07T13:23:40.624Z,1.30
2023-03-07T13:26:10.859Z,1.60
2023-03-07T13:28:42.560Z,3.33
2023-03-07T13:31:26.451Z,1.65
2023-03-07T13:33:53.887Z,1.90
2023-03-07T13:36:37.938Z,2.45
2023-03-07T13:39:25.129Z,3.15
2023-03-07T13:41:52.501Z,9.27
2023-03-07T13:44:43.078Z,3.90
2023-03-07T13:47:28.939Z,3.15
2023-03-07T13:49:56.197Z,2.50
2023-03-07T13:52:33.070Z,1.65
2023-03-07T13:55:01.139Z,3.03
2023-03-07T13:57:33.249Z,2.10
2023-03-07T14:00:01.195Z,3.30
2023-03-07T14:02:29.283Z,1.92
2023-03-07T14:04:58.262Z,5.45
2023-03-07T14:07:28.251Z,2.67
2023-03-07T14:10:22.015Z,2.22
2023-03-07T14:12:57.353Z,3.35
2023-03-07T14:15:44.984Z,2.13
2023-03-07T14:18:18.317Z,2.33
2023-03-07T14:20:55.820Z,4.28
2023-03-07T14:23:42.542Z,4.28
2023-03-07T14:26:33.746Z,4.13
2023-03-07T14:29:01.144Z,5.50
2023-03-07T14:31:37.650Z,8.20
2023-03-07T14:34:23.866Z,3.30
2023-03-07T14:36:53.989Z,3.20
2023-03-07T14:39:22.095Z,4.25
2023-03-07T14:41:56.174Z,2.05
2023-03-07T14:44:46.694Z,2.20
2023-03-07T14:47:16.925Z,3.20
2023-03-07T14:49:53.073Z,2.50
2023-03-07T14:52:30.857Z,2.42
2023-03-07T14:55:02.877Z,5.30
2023-03-07T14:57:43.409Z,14.73
2023-03-07T15:00:25.038Z,3.88
2023-03-07T15:03:00.157Z,3.25
2023-03-07T15:05:28.926Z,3.30
2023-03-07T15:07:56.885Z,3.45
2023-03-07T15:10:33.222Z,2.72
2023-03-07T15:13:01.006Z,3.10
2023-03-07T15:15:34.161Z,10.95
2023-03-07T15:18:06.221Z,4.03
2023-03-07T15:20:34.356Z,7.28
2023-03-07T15:23:03.799Z,2.10
2023-03-07T15:25:32.254Z,6.05
2023-03-07T15:27:59.473Z,12.55
2023-03-07T15:30:28.641Z,3.22
2023-03-07T15:33:15.716Z,3.75
2023-03-07T15:35:43.954Z,3.03
2023-03-07T15:38:22.356Z,4.88
2023-03-07T15:40:50.507Z,2.55
2023-03-07T15:43:24.591Z,2.17
2023-03-07T15:46:01.916Z,2.30
2023-03-07T15:48:43.393Z,2.70
2023-03-07T15:51:20.935Z,3.47
2023-03-07T15:54:14.295Z,6.93
2023-03-07T15:56:41.538Z,3.55
2023-03-07T15:59:18.122Z,4.60
2023-03-07T16:01:45.400Z,4.43
2023-03-07T16:04:33.044Z,2.85
2023-03-07T16:07:00.380Z,3.47
2023-03-07T16:09:27.625Z,5.25
2023-03-07T16:11:55.064Z,3.50
2023-03-07T16:14:25.726Z,4.25
2023-03-07T16:16:54.728Z,5.75
2023-03-07T16:19:21.973Z,6.93
2023-03-07T16:21:49.281Z,7.15
2023-03-07T16:24:16.603Z,3.97
2023-03-07T16:26:44.366Z,4.70
2023-03-07T16:29:15.356Z,4.78
2023-03-07T16:31:42.730Z,3.58
2023-03-07T16:34:17.337Z,3.90
2023-03-07T16:36:44.601Z,4.63
2023-03-07T16:39:12.818Z,5.53
2023-03-07T16:41:43.751Z,3.08
2023-03-07T16:44:16.238Z,3.83
2023-03-07T16:46:44.742Z,2.92
2023-03-07T16:49:15.801Z,2.00
2023-03-07T16:51:43.076Z,3.95
2023-03-07T16:54:10.427Z,2.92
2023-03-07T16:56:39.109Z,2.45
2023-03-07T16:59:08.377Z,2.72
2023-03-07T17:01:35.662Z,4.25
2023-03-07T17:04:03.050Z,3.90
2023-03-07T17:06:38.699Z,7.20
2023-03-07T17:09:09.432Z,5.75
2023-03-07T17:11:37.273Z,6.53
2023-03-07T17:14:05.753Z,4.80
2023-03-07T17:16:33.225Z,4.68
2023-03-07T17:19:00.467Z,5.20
2023-03-07T17:21:27.753Z,5.32
2023-03-07T17:23:55.054Z,3.60
2023-03-07T17:26:28.387Z,5.22
2023-03-07T17:28:56.608Z,5.43
2023-03-07T17:31:23.917Z,5.78
2023-03-07T17:33:51.294Z,6.25
2023-03-07T17:36:18.802Z,5.65
2023-03-07T17:38:46.045Z,4.60
2023-03-07T17:41:13.322Z,4.97
2023-03-07T17:43:40.745Z,4.05
2023-03-07T17:46:12.448Z,4.60
2023-03-07T17:48:39.809Z,5.07
2023-03-07T17:51:10.694Z,4.40
2023-03-07T17:53:38.563Z,4.47
2023-03-07T17:56:09.738Z,6.63
2023-03-07T17:58:38.568Z,3.75
2023-03-07T18:01:11.216Z,3.55
2023-03-07T18:03:39.156Z,3.70
2023-03-07T18:06:06.794Z,3.28
2023-03-07T18:08:34.057Z,4.85
2023-03-07T18:11:05.295Z,3.75
2023-03-07T18:13:32.616Z,4.07
2023-03-07T18:16:00.463Z,5.00
2023-03-07T18:18:29.970Z,4.78
2023-03-07T18:21:00.871Z,3.92
2023-03-07T18:23:28.437Z,3.80
2023-03-07T18:25:59.625Z,4.68
2023-03-07T18:28:27.465Z,3.20
2023-03-07T18:31:01.552Z,4.03
2023-03-07T18:33:28.841Z,3.78
2023-03-07T18:35:56.597Z,3.13
2023-03-07T18:38:24.177Z,3.15
2023-03-07T18:40:53.855Z,3.10
2023-03-07T18:43:21.222Z,5.55
2023-03-07T18:45:48.512Z,3.30
2023-03-07T18:48:15.795Z,5.40
2023-03-07T18:50:43.010Z,4.93
2023-03-07T18:53:10.280Z,3.22
2023-03-07T18:55:40.562Z,4.05
2023-03-07T18:58:07.840Z,4.10
2023-03-07T19:00:35.136Z,3.20
2023-03-07T19:03:03.122Z,2.53
2023-03-07T19:05:30.436Z,2.95
2023-03-07T19:07:57.694Z,3.50
2023-03-07T19:10:24.972Z,3.25
2023-03-07T19:12:52.197Z,2.78
2023-03-07T19:15:19.495Z,3.85
2023-03-07T19:17:46.853Z,1.65
2023-03-07T19:20:14.300Z,2.65
2023-03-07T19:22:42.099Z,2.00
2023-03-07T19:25:10.125Z,1.92
2023-03-07T19:27:37.435Z,1.75
2023-03-07T19:30:05.669Z,3.85
2023-03-07T19:32:33.546Z,3.15
2023-03-07T19:35:00.899Z,3.13
2023-03-07T19:37:29.235Z,2.05
2023-03-07T19:39:57.128Z,2.67
2023-03-07T19:42:24.373Z,2.10
2023-03-07T19:44:51.773Z,5.45
2023-03-07T19:47:19.062Z,4.20
2023-03-07T19:49:47.969Z,3.95
2023-03-07T19:52:16.495Z,1.55
2023-03-07T19:54:45.533Z,3.67
2023-03-07T19:57:15.130Z,2.28
2023-03-07T19:59:42.542Z,2.80
2023-03-07T20:02:12.158Z,2.60
2023-03-07T20:04:39.396Z,2.13
2023-03-07T20:07:06.765Z,1.65
2023-03-07T20:09:34.093Z,2.67
2023-03-07T20:12:01.366Z,1.70
2023-03-07T20:14:28.663Z,2.65
2023-03-07T20:16:55.932Z,3.97
2023-03-07T20:19:23.376Z,4.78
2023-03-07T20:21:50.833Z,4.97
2023-03-07T20:24:18.850Z,2.20
2023-03-07T20:26:47.998Z,3.22
2023-03-07T20:29:15.361Z,3.40
2023-03-07T20:31:42.679Z,4.20
2023-03-07T20:34:10.041Z,1.80
2023-03-07T20:36:38.158Z,2.60
2023-03-07T20:39:08.095Z,2.97
2023-03-07T20:41:35.894Z,3.58
2023-03-07T20:44:04.685Z,2.03
2023-03-07T20:46:32.400Z,1.98
2023-03-07T20:49:00.704Z,2.55
2023-03-07T20:51:29.446Z,4.45
2023-03-07T20:53:58.512Z,1.80
2023-03-07T20:56:26.888Z,2.45
2023-03-07T20:58:54.497Z,2.50
2023-03-07T21:01:22.565Z,2.47
2023-03-07T21:03:49.921Z,3.85
2023-03-07T21:06:17.427Z,3.38
2023-03-07T21:08:45.168Z,2.33
2023-03-07T21:11:13.524Z,5.70
2023-03-07T21:13:41.927Z,2.80
2023-03-07T21:16:11.003Z,2.20
2023-03-07T21:18:38.301Z,2.95
2023-03-07T21:21:07.576Z,1.85
2023-03-07T21:23:34.823Z,4.30
2023-03-07T21:26:03.749Z,3.38
2023-03-07T21:28:31.519Z,2.13
2023-03-07T21:31:06.250Z,3.85
2023-03-07T21:33:33.854Z,2.33
2023-03-07T21:36:01.806Z,2.92
2023-03-07T21:38:29.259Z,4.70
2023-03-07T21:40:56.686Z,4.80
2023-03-07T21:43:24.256Z,3.85
2023-03-07T21:45:51.576Z,2.20
2023-03-07T21:48:22.262Z,3.10
2023-03-07T21:50:52.199Z,3.53
2023-03-07T21:53:20.091Z,2.70
2023-03-07T21:55:58.404Z,3.15
2023-03-07T21:58:25.980Z,2.60
2023-03-07T22:00:55.365Z,3.70
2023-03-07T22:03:23.315Z,2.92
2023-03-07T22:05:50.898Z,3.65
2023-03-07T22:08:18.154Z,3.40
2023-03-07T22:10:45.429Z,5.63
2023-03-07T22:13:12.700Z,4.15
2023-03-07T22:15:40.526Z,5.28
2023-03-07T22:18:07.836Z,14.57
2023-03-07T22:20:35.097Z,25.77
2023-03-07T22:23:02.311Z,29.13
2023-03-07T22:25:29.569Z,22.50
2023-03-07T22:27:56.783Z,6.45
2023-03-07T22:30:24.078Z,4.78
2023-03-07T22:32:51.307Z,3.78
2023-03-07T22:35:18.621Z,4.53
2023-03-07T22:37:45.838Z,3.88
2023-03-07T22:40:13.322Z,2.88
2023-03-07T22:42:40.669Z,4.28
2023-03-07T22:45:08.241Z,4.25
2023-03-07T22:47:35.529Z,3.53
2023-03-07T22:50:02.746Z,2.67
2023-03-07T22:52:30.034Z,3.22
2023-03-07T22:54:57.288Z,3.13
2023-03-07T22:57:24.516Z,3.22
2023-03-07T22:59:51.821Z,2.90
2023-03-07T23:02:19.053Z,3.70
2023-03-07T23:04:46.440Z,3.00
2023-03-07T23:07:13.782Z,3.13
2023-03-07T23:09:41.054Z,2.33
2023-03-07T23:12:08.468Z,4.80
2023-03-07T23:14:37.310Z,4.18
2023-03-07T23:17:04.979Z,2.78
2023-03-07T23:19:32.211Z,4.20
2023-03-07T23:21:59.499Z,4.10
2023-03-07T23:24:26.724Z,4.43
2023-03-07T23:26:53.997Z,3.85
2023-03-07T23:29:21.219Z,4.68
2023-03-07T23:31:49.191Z,4.75
2023-03-07T23:34:18.224Z,4.55
2023-03-07T23:36:45.966Z,7.22
2023-03-07T23:39:15.087Z,5.68
2023-03-07T23:41:42.333Z,5.40
2023-03-07T23:44:11.596Z,5.70
2023-03-07T23:46:38.823Z,4.93
2023-03-07T23:49:06.152Z,4.38
2023-03-07T23:51:33.970Z,5.55
2023-03-07T23:54:01.270Z,5.00
2023-03-07T23:56:28.548Z,5.00
2023-03-07T23:58:55.824Z,5.78
